NEODyS-2

Near Earth Objects - Dynamic Site
NEODyS ∴ Observatories ∴ Site 691 ∴ Obs & residuals
Contact »
691  ▹ 
OBSERVATIONS AND RESIDUALS

691-Steward Observatory, Kitt Peak-Spacewatch

Detections | Residuals | Detections & Residuals

[1-200] [201-400] [401-600] [601-800] [801-1000] [1001-1200] [1201-1400] [1401-1600] [1601-1800] [1801-2000] [2001-2200] [2201-2400] [2401-2600] [2601-2800] [2801-3000] [3001-3200] [3201-3400] [3401-3600] [3601-3800] [3801-4000] [4001-4200] [4201-4400] [4401-4600] [4601-4800] [4801-5000] [5001-5200] [5201-5400] [5401-5600] [5601-5800] [5801-6000] [6001-6200] [6201-6400] [6401-6600] [6601-6800] [6801-7000] [7001-7200] [7201-7400] [7401-7600] [7601-7800] [7801-8000] [8001-8200] [8201-8400] [8401-8600] [8601-8800] [8801-9000] [9001-9200] [9201-9400] [9401-9600] [9601-9800] [9801-10000] [10001-10200] [10201-10400] [10401-10600] [10601-10800] [10801-11000] [11001-11200] [11201-11400] [11401-11600] [11601-11800] [11801-12000] [12001-12200] [12201-12400] [12401-12600] [12601-12800] [12801-13000] [13001-13200] [13201-13400] [13401-13600] [13601-13800] [13801-14000] [14001-14200] [14201-14400] [14401-14600] [14601-14800] [14801-15000] [15001-15200] [15201-15400] [15401-15600] [15601-15800] [15801-16000] [16001-16200] [16201-16400] [16401-16600] [16601-16800] [16801-17000] [17001-17200] [17201-17400] [17401-17600] [17601-17800] [17801-18000] [18001-18200] [18201-18400] [18401-18600] [18601-18800] [18801-19000] [19001-19200] [19201-19400] [19401-19600] [19601-19800] [19801-20000] [20001-20200] [20201-20400] [20401-20600] [20601-20800] [20801-21000] [21001-21200] [21201-21400] [21401-21600] [21601-21800] [21801-22000] [22001-22200] [22201-22400] [22401-22600] [22601-22800] [22801-23000] [23001-23200] [23201-23400] [23401-23600] [23601-23800] [23801-24000] [24001-24200] [24201-24400] [24401-24600] [24601-24800] [24801-25000] [25001-25200] [25201-25400] [25401-25600] [25601-25800] [25801-26000] [26001-26200] [26201-26400] [26401-26600] [26601-26800] [26801-27000] [27001-27200] [27201-27400] [27401-27600] [27601-27800] [27801-28000] [28001-28200] [28201-28400] [28401-28600] [28601-28800] [28801-29000] [29001-29200] [29201-29400] [29401-29600] [29601-29800] [29801-30000] [30001-30200] [30201-30400] [30401-30600] [30601-30800] [30801-31000] [31001-31200] [31201-31400] [31401-31600] [31601-31800] [31801-32000] [32001-32200] [32201-32400] [32401-32600] [32601-32800] [32801-33000] [33001-33200] [33201-33400] [33401-33600] [33601-33800] [33801-34000] [34001-34200] [34201-34400] [34401-34600] [34601-34800] [34801-35000] [35001-35200] [35201-35400] [35401-35600] [35601-35800] [35801-36000] [36001-36200] [36201-36400] [36401-36600] [36601-36800] [36801-37000] [37001-37200] [37201-37400] [37401-37600] [37601-37800] [37801-38000] [38001-38200] [38201-38400] [38401-38600] [38601-38800] [38801-39000] [39001-39200] [39201-39400] [39401-39600] [39601-39800] [39801-40000] [40001-40200] [40201-40400] [40401-40600] [40601-40800] [40801-41000] [41001-41200] [41201-41400] [41401-41600] [41601-41800] [41801-42000] [42001-42200] [42201-42400] [42401-42600] [42601-42800] [42801-43000] [43001-43200] [43201-43400] [43401-43600] [43601-43800] [43801-44000] [44001-44200] [44201-44400] [44401-44600] [44601-44800] [44801-45000] [45001-45200] [45201-45400] [45401-45600] [45601-45800] [45801-46000] [46001-46200] [46201-46400] [46401-46600] [46601-46800] [46801-47000] [47001-47200] [47201-47400] [47401-47600] [47601-47800] [47801-48000] [48001-48200] [48201-48400] [48401-48600] [48601-48800] [48801-49000] [49001-49200] [49201-49400] [49401-49600] [49601-49800] [49801-50000] [50001-50200] [50201-50388]

Designation T Tech N Date Right Ascension Declination Apparent Magnitude Star Catalog Site code χ Used A Used M
yr-mo-day precision hr:min:sec precision rms F bias residual deg min sec precision rms F bias residual mag/col rms residual
2006DZ169 O C H 2009-01-08.54667 1.000E-05 12:59:33.340 1.500E-01 0.500 F 0.149 -0.282 -02° 32' 39.70" 1.000E-01 0.500 F 0.131 -0.342 21.0 V 0.70 -0.42 o 691 0.89 Yes Yes
Gordonmoore O C 2009-01-15.20373 1.000E-05 06:58:38.600 1.500E-01 0.500 F -0.107 -0.255 +23° 08' 25.40" 1.000E-01 0.500 F 0.192 0.035 20.9 V 0.70 0.05 o 691 0.52 Yes Yes
Gordonmoore O C 2009-01-15.22006 1.000E-05 06:58:37.350 1.500E-01 0.500 F -0.107 -0.274 +23° 08' 28.80" 1.000E-01 0.500 F 0.192 -0.381 20.6 V 0.70 -0.25 o 691 0.94 Yes Yes
Gordonmoore O C 2009-01-15.23660 1.000E-05 06:58:36.060 1.500E-01 0.500 F -0.107 -0.608 +23° 08' 32.30" 1.000E-01 0.500 F 0.192 -0.728 20.6 V 0.70 -0.25 o 691 1.90 Yes Yes
2003YL O C 2009-01-15.25243 1.000E-05 08:18:22.670 1.500E-01 0.500 F -0.025 -0.312 +18° 06' 36.20" 1.000E-01 0.500 F 0.243 -1.074 20.3 V 0.70 -0.17 o 691 2.24 Yes Yes
2006AS2 O C H 2009-01-15.25243 1.000E-05 08:18:37.450 1.500E-01 0.500 F 0.000 0.017 +17° 27' 08.70" 1.000E-01 0.500 F 0.202 -0.462 o 691 0.93 Yes No
2004QQ O C H 2009-01-15.25735 1.000E-05 08:29:36.050 1.500E-01 0.500 F 0.015 -0.618 +16° 58' 40.70" 1.000E-01 0.500 F 0.183 -0.112 21.1 V 0.70 -0.42 o 691 1.26 Yes Yes
2003YL O C 2009-01-15.27080 1.000E-05 08:18:18.970 1.500E-01 0.500 F -0.025 -0.106 +18° 06' 44.60" 1.000E-01 0.500 F 0.243 -0.080 20.7 V 0.70 0.23 o 691 0.27 Yes Yes
2006AS2 O C H 2009-01-15.27080 1.000E-05 08:18:36.520 1.500E-01 0.500 F 0.000 -0.103 +17° 27' 17.80" 1.000E-01 0.500 F 0.202 -0.134 18.6 V 0.70 0.28 o 691 0.34 Yes Yes
2004QQ O C H 2009-01-15.27597 1.000E-05 08:29:34.720 1.500E-01 0.500 F 0.015 -1.428 +16° 58' 44.40" 1.000E-01 0.500 F 0.183 0.048 21.1 V 0.70 -0.42 o 691 2.86 Yes Yes
2003YL O C 2009-01-15.28891 1.000E-05 08:18:15.290 1.500E-01 0.500 F -0.025 -0.310 +18° 06' 51.70" 1.000E-01 0.500 F 0.243 -0.235 20.8 V 0.70 0.33 o 691 0.78 Yes Yes
2004QQ O C H 2009-01-15.29408 1.000E-05 08:29:33.570 1.500E-01 0.500 F 0.015 -0.136 +16° 58' 47.50" 1.000E-01 0.500 F 0.183 -0.284 21.2 V 0.70 -0.32 o 691 0.63 Yes Yes
2004YJ32 O C 2009-01-15.30411 1.000E-05 08:46:26.100 1.500E-01 0.500 F 0.035 -0.032 +19° 03' 21.30" 1.000E-01 0.500 F 0.163 -0.018 20.2 V 0.70 -0.16 o 691 0.07 Yes Yes
Toutatis O C 2009-01-15.31189 1.000E-05 08:44:04.360 1.500E-01 0.500 F 0.032 -0.248 +17° 56' 33.00" 1.000E-01 0.500 F 0.074 -0.048 14.7 V 0.70 0.54 o 691 0.51 Yes Yes
2004YJ32 O C 2009-01-15.32248 1.000E-05 08:46:24.820 1.500E-01 0.500 F 0.035 -0.013 +19° 03' 28.40" 1.000E-01 0.500 F 0.163 -0.222 20.2 V 0.70 -0.16 o 691 0.44 Yes Yes
Toutatis O C 2009-01-15.33027 1.000E-05 08:44:02.290 1.500E-01 0.500 F 0.032 -0.157 +17° 56' 42.10" 1.000E-01 0.500 F 0.074 -0.018 14.8 V 0.70 0.64 o 691 0.32 Yes Yes
2004YJ32 O C 2009-01-15.33805 1.000E-05 08:46:23.730 1.500E-01 0.500 F 0.035 -0.057 +19° 03' 34.80" 1.000E-01 0.500 F 0.163 0.002 20.2 V 0.70 -0.16 o 691 0.12 Yes Yes
Toutatis O C 2009-01-15.34582 1.000E-05 08:44:00.530 1.500E-01 0.500 F 0.032 -0.178 +17° 56' 49.80" 1.000E-01 0.500 F 0.074 0.082 14.9 V 0.70 0.74 o 691 0.39 Yes Yes
1998WT O C 2009-01-15.46748 1.000E-05 09:56:53.380 1.500E-01 0.500 F 0.087 -0.076 +12° 32' 16.60" 1.000E-01 0.500 F 0.171 -0.097 18.5 V 0.70 0.12 o 691 0.25 Yes Yes
1998WT O C 2009-01-15.48586 1.000E-05 09:56:51.930 1.500E-01 0.500 F 0.087 -0.153 +12° 32' 20.00" 1.000E-01 0.500 F 0.171 -0.089 18.5 V 0.70 0.13 o 691 0.35 Yes Yes
1998WT O C 2009-01-15.50398 1.000E-05 09:56:50.500 1.500E-01 0.500 F 0.087 -0.287 +12° 32' 23.30" 1.000E-01 0.500 F 0.171 -0.110 18.6 V 0.70 0.23 o 691 0.62 Yes Yes
2008WL O C H 2009-01-16.08433 1.000E-05 06:15:22.130 1.500E-01 0.500 F -0.163 -0.742 +19° 36' 42.70" 1.000E-01 0.500 F 0.177 -0.886 o 691 2.39 Yes No
2008WL O C H 2009-01-16.10163 1.000E-05 06:15:22.290 1.500E-01 0.500 F -0.163 0.371 +19° 36' 35.20" 1.000E-01 0.500 F 0.177 -0.487 o 691 1.28 Yes No
2008WL O C H 2009-01-16.11523 1.000E-05 06:15:22.330 1.500E-01 0.500 F -0.163 0.127 +19° 36' 29.50" 1.000E-01 0.500 F 0.177 0.042 o 691 0.28 Yes No
2003RB O C H 2009-01-16.31198 1.000E-05 09:27:34.780 1.500E-01 0.500 F 0.145 -0.052 +17° 18' 32.90" 1.000E-01 0.500 F 0.166 -0.264 20.7 V 0.70 -0.16 o 691 0.54 Yes Yes
2000UV16 O C H 2009-01-16.31469 1.000E-05 09:36:24.180 1.500E-01 0.500 F 0.191 -0.149 +17° 05' 31.10" 1.000E-01 0.500 F 0.227 -0.002 o 691 0.30 Yes No
2003RB O C H 2009-01-16.33034 1.000E-05 09:27:32.960 1.500E-01 0.500 F 0.145 0.174 +17° 18' 36.90" 1.000E-01 0.500 F 0.166 -0.308 o 691 0.71 Yes No
2000UV16 O C H 2009-01-16.33280 1.000E-05 09:36:23.270 1.500E-01 0.500 F 0.191 0.955 +17° 05' 35.50" 1.000E-01 0.500 F 0.227 -0.076 o 691 1.92 Yes No
2003RB O C H 2009-01-16.34846 1.000E-05 09:27:31.110 1.500E-01 0.500 F 0.145 -0.334 +17° 18' 40.60" 1.000E-01 0.500 F 0.166 -0.573 20.7 V 0.70 -0.16 o 691 1.33 Yes Yes
2000UV16 O C H 2009-01-16.35092 1.000E-05 09:36:22.220 1.500E-01 0.500 F 0.191 0.078 +17° 05' 39.10" 1.000E-01 0.500 F 0.227 -0.942 o 691 1.90 Yes No
2001BJ16 O C 2009-01-16.42901 1.000E-05 10:27:04.260 1.500E-01 0.500 F 0.150 -0.314 +06° 48' 48.60" 1.000E-01 0.500 F 0.107 0.108 19.6 V 0.70 -0.17 o 691 0.67 Yes Yes
2001BJ16 O C 2009-01-16.44734 1.000E-05 10:27:03.780 1.500E-01 0.500 F 0.150 -0.161 +06° 49' 17.40" 1.000E-01 0.500 F 0.107 -0.065 19.6 V 0.70 -0.17 o 691 0.35 Yes Yes
2001BJ16 O C 2009-01-16.46542 1.000E-05 10:27:03.290 1.500E-01 0.500 F 0.150 -0.263 +06° 49' 46.20" 1.000E-01 0.500 F 0.107 0.160 19.4 V 0.70 -0.37 o 691 0.62 Yes Yes
2000NG11 O C H 2009-01-16.47299 1.000E-05 10:44:35.580 1.500E-01 0.500 F 0.203 -0.275 +09° 27' 09.30" 1.000E-01 0.500 F 0.249 -0.076 20.0 V 0.70 0.09 o 691 0.57 Yes Yes
2000NG11 O C H 2009-01-16.49452 1.000E-05 10:44:34.620 1.500E-01 0.500 F 0.203 -0.190 +09° 27' 15.50" 1.000E-01 0.500 F 0.249 -0.072 19.9 V 0.70 -0.01 o 691 0.41 Yes Yes
2000NG11 O C H 2009-01-16.51285 1.000E-05 10:44:33.860 1.500E-01 0.500 F 0.203 0.711 +09° 27' 20.70" 1.000E-01 0.500 F 0.249 -0.138 o 691 1.45 Yes No
2005EA60 O C 2009-01-17.45091 1.000E-05 10:27:46.800 1.500E-01 0.500 F 0.107 0.141 +12° 47' 23.80" 1.000E-01 0.500 F 0.124 0.014 o 691 0.28 Yes No
2006BC10 O C H 2009-01-17.46117 1.000E-05 10:40:31.310 1.500E-01 0.500 F 0.135 -0.357 +10° 18' 06.00" 1.000E-01 0.500 F 0.247 0.277 21.1 V 0.70 -0.04 o 691 0.91 Yes Yes
2005EA60 O C 2009-01-17.46905 1.000E-05 10:27:46.710 1.500E-01 0.500 F 0.107 0.023 +12° 47' 17.60" 1.000E-01 0.500 F 0.124 -0.248 o 691 0.50 Yes No
2006BC10 O C H 2009-01-17.47955 1.000E-05 10:40:31.390 1.500E-01 0.500 F 0.135 0.047 +10° 18' 06.30" 1.000E-01 0.500 F 0.247 -0.064 21.2 V 0.70 0.06 o 691 0.16 Yes Yes
2005EA60 O C 2009-01-17.48744 1.000E-05 10:27:46.630 1.500E-01 0.500 F 0.107 0.005 +12° 47' 11.50" 1.000E-01 0.500 F 0.124 -0.278 o 691 0.56 Yes No
2006BC10 O C H 2009-01-17.49769 1.000E-05 10:40:31.460 1.500E-01 0.500 F 0.135 0.289 +10° 18' 07.10" 1.000E-01 0.500 F 0.247 0.120 21.0 V 0.70 -0.14 o 691 0.63 Yes Yes
2003RP8 O C H 2009-01-18.16695 1.000E-05 08:11:23.720 1.500E-01 0.612 F 0.013 1.300 +22° 31' 13.70" 1.000E-01 0.612 F 0.200 -0.738 21.1 V 0.70 0.32 o 691 2.44 Yes Yes
2003RP8 O C 2009-01-18.16943 1.000E-05 08:11:23.290 1.500E-01 0.612 F 0.013 -0.436 +22° 31' 13.40" 1.000E-01 0.612 F 0.200 0.030 o 691 0.71 Yes No
2003RP8 O C H 2009-01-18.18512 1.000E-05 08:11:21.370 1.500E-01 0.612 F 0.013 -0.297 +22° 31' 05.00" 1.000E-01 0.612 F 0.200 -1.604 20.8 V 0.70 0.02 o 691 2.67 Yes Yes
2003RP8 O C 2009-01-18.18759 1.000E-05 08:11:21.060 1.500E-01 0.612 F 0.013 -0.378 +22° 31' 05.40" 1.000E-01 0.612 F 0.200 -0.138 o 691 0.66 Yes No
2003RP8 O C H 2009-01-18.20328 1.000E-05 08:11:19.100 1.500E-01 0.612 F 0.013 -0.744 +22° 30' 57.70" 1.000E-01 0.612 F 0.200 -1.054 20.8 V 0.70 0.02 o 691 2.11 Yes Yes
2003RP8 O C 2009-01-18.20599 1.000E-05 08:11:18.810 1.500E-01 0.612 F 0.013 -0.131 +22° 30' 57.50" 1.000E-01 0.612 F 0.200 -0.081 o 691 0.25 Yes No
2000DV110 O C H 2009-01-18.23086 1.000E-05 08:50:44.640 1.500E-01 0.612 F 0.027 -0.786 +25° 50' 25.10" 1.000E-01 0.612 F 0.293 -0.182 21.3 V 0.70 0.02 o 691 1.33 Yes Yes
2000DV110 O C 2009-01-18.23333 1.000E-05 08:50:44.480 1.500E-01 0.612 F 0.027 -0.327 +25° 50' 26.90" 1.000E-01 0.612 F 0.293 0.725 o 691 1.31 Yes No
2000DV110 O C H 2009-01-18.24902 1.000E-05 08:50:43.260 1.500E-01 0.612 F 0.027 -0.132 +25° 50' 31.60" 1.000E-01 0.612 F 0.293 -0.232 21.3 V 0.70 0.02 o 691 0.44 Yes Yes
2000DV110 O C 2009-01-18.25149 1.000E-05 08:50:43.000 1.500E-01 0.612 F 0.027 -1.014 +25° 50' 33.40" 1.000E-01 0.612 F 0.293 0.680 o 691 2.01 Yes No
2000DV110 O C H 2009-01-18.26464 1.000E-05 08:50:42.020 1.500E-01 0.612 F 0.027 -0.234 +25° 50' 37.90" 1.000E-01 0.612 F 0.293 0.460 21.2 V 0.70 -0.08 o 691 0.85 Yes Yes
2000DV110 O C 2009-01-18.26710 1.000E-05 08:50:41.830 1.500E-01 0.612 F 0.027 -0.174 +25° 50' 37.90" 1.000E-01 0.612 F 0.293 -0.420 o 691 0.75 Yes No
2007TX18 O C H 2009-01-18.28203 1.000E-05 08:56:57.960 1.500E-01 0.500 F -0.007 0.670 +12° 39' 22.80" 1.000E-01 0.500 F 0.200 -0.586 21.8 V 0.70 0.18 o 691 1.79 Yes Yes
Anza O C 2009-01-18.29227 1.000E-05 09:04:44.370 1.500E-01 0.500 F 0.048 -0.411 +10° 06' 01.10" 1.000E-01 0.500 F 0.137 -0.092 o 691 0.85 Yes No
2007TX18 O C H 2009-01-18.30015 1.000E-05 08:56:56.740 1.500E-01 0.500 F -0.007 0.098 +12° 39' 26.00" 1.000E-01 0.500 F 0.200 -0.009 21.6 V 0.70 -0.02 o 691 0.20 Yes Yes
Anza O C 2009-01-18.31063 1.000E-05 09:04:42.890 1.500E-01 0.500 F 0.048 -0.075 +10° 06' 07.60" 1.000E-01 0.500 F 0.137 0.051 o 691 0.19 Yes No
2007TX18 O C H 2009-01-18.31851 1.000E-05 08:56:55.550 1.500E-01 0.500 F -0.007 0.215 +12° 39' 28.40" 1.000E-01 0.500 F 0.200 -0.257 o 691 0.67 Yes No
Anza O C 2009-01-18.32876 1.000E-05 09:04:41.400 1.500E-01 0.500 F 0.048 -0.140 +10° 06' 14.00" 1.000E-01 0.500 F 0.137 0.184 o 691 0.47 Yes No
2003EF54 O C H 2009-01-18.35177 1.000E-05 09:39:43.740 1.500E-01 0.500 F 0.093 -0.724 +09° 42' 35.40" 1.000E-01 0.500 F 0.173 -0.203 21.3 V 0.70 -0.49 o 691 1.51 Yes Yes
2003EF54 O C H 2009-01-18.36988 1.000E-05 09:39:42.500 1.500E-01 0.500 F 0.093 -0.092 +09° 42' 37.10" 1.000E-01 0.500 F 0.173 -0.468 o 691 0.96 Yes No
2003EF54 O C H 2009-01-18.38826 1.000E-05 09:39:41.240 1.500E-01 0.500 F 0.093 0.555 +09° 42' 39.00" 1.000E-01 0.500 F 0.173 -0.548 21.5 V 0.70 -0.29 o 691 1.57 Yes Yes
2008VA15 O C H 2009-01-18.51549 1.000E-05 10:51:40.630 1.500E-01 0.500 F 0.075 -0.512 +14° 32' 47.40" 1.000E-01 0.500 F 0.107 0.315 21.3 V 0.70 0.09 o 691 1.23 Yes Yes
2008VA15 O C H 2009-01-18.55179 1.000E-05 10:51:36.990 1.500E-01 0.500 F 0.075 0.531 +14° 32' 33.00" 1.000E-01 0.500 F 0.107 1.156 o 691 2.59 Yes No
2003YL O C t 2009-01-20.16594 1.000E-05 08:02:31.450 1.500E-01 0.500 F -0.067 -0.061 +18° 36' 07.30" 1.000E-01 0.500 F 0.212 -0.314 20.8 V 0.70 0.45 o 691 0.64 Yes Yes
2006AS2 O C H 2009-01-20.17621 1.000E-05 08:14:26.840 1.500E-01 0.500 F -0.044 -0.198 +18° 15' 08.20" 1.000E-01 0.500 F 0.213 -0.054 17.9 V 0.70 0.41 o 691 0.41 Yes Yes
2000NF5 O C 2009-01-20.18139 1.000E-05 08:28:59.100 1.500E-01 0.500 F 0.089 -0.116 +18° 18' 15.80" 1.000E-01 0.500 F 0.155 -0.426 20.3 V 0.70 -0.19 o 691 0.88 Yes Yes
2003YL O C t 2009-01-20.18409 1.000E-05 08:02:28.020 1.500E-01 0.500 F -0.067 0.554 +18° 36' 13.10" 1.000E-01 0.500 F 0.212 -0.735 21.1 V 0.70 0.75 o 691 1.84 Yes Yes
2006AS2 O C H 2009-01-20.19434 1.000E-05 08:14:25.460 1.500E-01 0.500 F -0.044 -0.095 +18° 15' 22.70" 1.000E-01 0.500 F 0.213 -0.070 18.2 V 0.70 0.71 o 691 0.24 Yes Yes
2004QQ O C H 2009-01-20.20297 1.000E-05 08:24:00.560 1.500E-01 0.500 F -0.012 -1.542 +17° 14' 10.60" 1.000E-01 0.500 F 0.221 -0.174 21.5 V 0.70 0.09 o 691 3.11 Yes Yes
2000NF5 O C 2009-01-20.20297 1.000E-05 08:28:57.650 1.500E-01 0.500 F 0.089 -0.393 +18° 18' 21.00" 1.000E-01 0.500 F 0.155 0.059 20.3 V 0.70 -0.19 o 691 0.79 Yes Yes
2003YL O C t 2009-01-20.20568 1.000E-05 08:02:23.850 1.500E-01 0.500 F -0.067 0.125 +18° 36' 20.50" 1.000E-01 0.500 F 0.212 -0.688 20.1 V 0.70 -0.25 o 691 1.40 Yes Yes
2006AS2 O C H 2009-01-20.21617 1.000E-05 08:14:23.750 1.500E-01 0.500 F -0.044 -0.152 +18° 15' 39.90" 1.000E-01 0.500 F 0.213 -0.243 17.9 V 0.70 0.42 o 691 0.57 Yes Yes
2004QQ O C H 2009-01-20.22110 1.000E-05 08:23:59.390 1.500E-01 0.500 F -0.012 -0.332 +17° 14' 13.70" 1.000E-01 0.500 F 0.221 -0.548 21.4 V 0.70 -0.01 o 691 1.28 Yes Yes
2000NF5 O C 2009-01-20.22110 1.000E-05 08:28:56.440 1.500E-01 0.500 F 0.089 -0.471 +18° 18' 24.90" 1.000E-01 0.500 F 0.155 0.008 20.3 V 0.70 -0.19 o 691 0.94 Yes Yes
2017NL6 O C 2009-01-20.23436 1.000E-05 08:28:56.750 1.500E-01 0.500 F 0.062 0.033 +21° 40' 14.10" 1.000E-01 0.500 F 0.233 -0.434 21.2 V 0.70 -0.48 o 691 0.89 Yes Yes
2017NL6 O C 2009-01-20.25253 1.000E-05 08:28:55.150 1.500E-01 0.500 F 0.062 -0.025 +21° 40' 16.30" 1.000E-01 0.500 F 0.233 -0.011 21.2 V 0.70 -0.48 o 691 0.06 Yes Yes
2017NL6 O C 2009-01-20.27094 1.000E-05 08:28:53.540 1.500E-01 0.500 F 0.062 0.104 +21° 40' 17.80" 1.000E-01 0.500 F 0.233 -0.286 21.1 V 0.70 -0.58 o 691 0.64 Yes Yes
2003RB O C H 2009-01-20.29927 1.000E-05 09:20:57.860 1.500E-01 0.500 F 0.069 0.418 +17° 32' 58.90" 1.000E-01 0.500 F 0.156 -0.182 20.6 V 0.70 -0.18 o 691 0.91 Yes Yes
2003RB O C H 2009-01-20.31767 1.000E-05 09:20:55.890 1.500E-01 0.500 F 0.069 -0.172 +17° 33' 02.90" 1.000E-01 0.500 F 0.156 -0.280 20.9 V 0.70 0.12 o 691 0.66 Yes Yes
2009BP5 O C 2009-01-20.40310 1.000E-05 10:01:05.370 1.500E-01 0.500 F 0.054 -0.442 +16° 32' 06.40" 1.000E-01 0.500 F 0.253 -0.119 20.4 V 0.70 0.09 o 691 1.00 Yes Yes
2009BP5 O C 2009-01-20.42124 1.000E-05 10:01:10.610 1.500E-01 0.500 F 0.054 0.441 +16° 32' 23.90" 1.000E-01 0.500 F 0.253 -0.180 20.5 V 0.70 0.19 o 691 1.07 Yes Yes
2009BP5 O C 2009-01-20.43937 1.000E-05 10:01:15.770 1.500E-01 0.500 F 0.054 -0.041 +16° 32' 41.70" 1.000E-01 0.500 F 0.253 0.184 20.0 V 0.70 -0.30 o 691 0.42 Yes Yes
2009BR5 O C 2009-01-20.45513 1.000E-05 10:18:06.270 1.500E-01 0.500 F 0.185 -0.346 +08° 30' 14.10" 1.000E-01 0.500 F 0.110 -0.221 20.4 V 0.70 0.05 o 691 0.90 Yes Yes
2001BJ16 O C 2009-01-20.45784 1.000E-05 10:25:09.930 1.500E-01 0.500 F 0.110 -0.241 +08° 41' 05.20" 1.000E-01 0.500 F 0.128 -0.124 20.0 V 0.70 0.38 o 691 0.54 Yes Yes
2009BT5 O C 2009-01-20.46570 1.000E-05 10:17:23.670 1.500E-01 0.500 F 0.195 -0.232 +06° 56' 51.10" 1.000E-01 0.500 F 0.165 -0.470 19.7 V 0.70 -0.07 o 691 1.07 Yes Yes
2009BR5 O C 2009-01-20.47349 1.000E-05 10:18:10.020 1.500E-01 0.500 F 0.185 0.189 +08° 29' 25.80" 1.000E-01 0.500 F 0.110 0.040 20.4 V 0.70 0.05 o 691 0.43 Yes Yes
2001BJ16 O C 2009-01-20.47595 1.000E-05 10:25:09.210 1.500E-01 0.500 F 0.110 -0.178 +08° 41' 37.00" 1.000E-01 0.500 F 0.128 -0.155 20.3 V 0.70 0.68 o 691 0.47 Yes Yes
2009BT5 O C 2009-01-20.48381 1.000E-05 10:17:24.520 1.500E-01 0.500 F 0.195 -0.241 +06° 57' 53.00" 1.000E-01 0.500 F 0.165 -0.023 20.0 V 0.70 0.23 o 691 0.49 Yes Yes
2009BR5 O C 2009-01-20.49159 1.000E-05 10:18:13.710 1.500E-01 0.500 F 0.185 0.347 +08° 28' 37.40" 1.000E-01 0.500 F 0.110 -0.339 20.5 V 0.70 0.16 o 691 1.08 Yes Yes
2001BJ16 O C 2009-01-20.49406 1.000E-05 10:25:08.410 1.500E-01 0.500 F 0.110 -1.349 +08° 42' 09.90" 1.000E-01 0.500 F 0.128 0.922 20.5 V 0.70 0.88 o 691 3.26 No Yes
2009BT5 O C 2009-01-20.50193 1.000E-05 10:17:25.370 1.500E-01 0.500 F 0.195 -0.392 +06° 58' 54.60" 1.000E-01 0.500 F 0.165 0.076 20.2 V 0.70 0.44 o 691 0.81 Yes Yes
2000NG11 O C 2009-01-20.51223 1.000E-05 10:41:25.790 1.500E-01 0.500 F 0.135 -0.005 +09° 48' 24.00" 1.000E-01 0.500 F 0.247 0.056 19.9 V 0.70 0.07 o 691 0.11 Yes Yes
2000NG11 O C 2009-01-20.53034 1.000E-05 10:41:24.790 1.500E-01 0.500 F 0.135 -0.370 +09° 48' 30.00" 1.000E-01 0.500 F 0.247 -0.043 20.1 V 0.70 0.27 o 691 0.75 Yes Yes
2000NG11 O C 2009-01-20.54608 1.000E-05 10:41:23.970 1.500E-01 0.500 F 0.135 0.005 +09° 48' 35.40" 1.000E-01 0.500 F 0.247 0.063 19.8 V 0.70 -0.03 o 691 0.13 Yes Yes
Oze O C H 2009-01-25.13673 1.000E-05 06:48:48.550 1.500E-01 0.500 F -0.099 -0.192 +19° 11' 42.40" 1.000E-01 0.500 F 0.181 0.075 17.6 V 0.70 0.28 o 691 0.41 Yes Yes
2009BC O C t 2009-01-25.14221 1.000E-05 06:48:26.450 1.500E-01 0.500 F 0.044 1.681 +25° 34' 36.40" 1.000E-01 0.500 F 0.143 -1.586 21.0 V 0.70 0.09 o 691 3.82 No Yes
Gordonmoore O C H 2009-01-25.14481 1.000E-05 06:46:47.010 1.500E-01 0.500 F -0.073 -0.907 +23° 43' 38.60" 1.000E-01 0.500 F 0.111 0.457 o 691 2.03 Yes No
2009BC O C t 2009-01-25.15561 1.000E-05 06:48:19.940 1.500E-01 0.500 F 0.044 -0.141 +25° 35' 10.90" 1.000E-01 0.500 F 0.143 -0.068 o 691 0.52 Yes No
Gordonmoore O C H 2009-01-25.17160 1.000E-05 06:46:45.170 1.500E-01 0.500 F -0.026 -0.934 +23° 43' 42.90" 1.000E-01 0.500 F 0.123 -0.608 o 691 2.23 Yes No
2009BC58 O C 2009-01-25.42020 1.000E-05 10:46:56.380 1.500E-01 0.500 F 0.139 -0.254 +08° 19' 42.30" 1.000E-01 0.500 F 0.255 -0.228 20.9 V 0.70 -0.37 o 691 0.69 Yes Yes
2009BC58 O C 2009-01-25.43280 1.000E-05 10:46:55.570 1.500E-01 0.500 F 0.139 -0.178 +08° 19' 45.90" 1.000E-01 0.500 F 0.255 -0.355 20.9 V 0.70 -0.36 o 691 0.80 Yes Yes
2009BC58 O C 2009-01-25.44539 1.000E-05 10:46:54.760 1.500E-01 0.500 F 0.139 -0.112 +08° 19' 49.90" 1.000E-01 0.500 F 0.255 -0.073 20.6 V 0.70 -0.66 o 691 0.27 Yes Yes
Florence O C 2009-01-25.45782 1.000E-05 11:28:08.680 1.500E-01 0.500 F 0.121 -0.202 +05° 55' 16.20" 1.000E-01 0.500 F 0.257 0.004 17.8 V 0.70 0.22 o 691 0.40 Yes Yes
Florence O C 2009-01-25.47543 1.000E-05 11:28:07.640 1.500E-01 0.500 F 0.121 -0.172 +05° 55' 14.20" 1.000E-01 0.500 F 0.257 -0.086 17.7 V 0.70 0.12 o 691 0.38 Yes Yes
Florence O C 2009-01-25.49302 1.000E-05 11:28:06.600 1.500E-01 0.500 F 0.121 -0.161 +05° 55' 12.40" 1.000E-01 0.500 F 0.257 0.026 17.6 V 0.70 0.02 o 691 0.33 Yes Yes
2003RB O C H 2009-01-26.19732 1.000E-05 09:10:46.380 1.500E-01 0.500 F 0.070 -1.212 +17° 53' 53.80" 1.000E-01 0.500 F 0.160 -0.941 o 691 3.07 Yes No
2003RB O C H 2009-01-26.21570 1.000E-05 09:10:44.520 1.500E-01 0.500 F 0.070 0.262 +17° 53' 58.70" 1.000E-01 0.500 F 0.160 -0.007 20.6 V 0.70 -0.03 o 691 0.52 Yes Yes
2006AS2 O C 2009-01-29.09581 1.000E-05 07:57:24.360 1.500E-01 0.500 F -0.058 -0.203 +21° 27' 24.10" 1.000E-01 0.500 F 0.216 0.064 o 691 0.43 Yes No
2006AS2 O C 2009-01-29.11345 1.000E-05 07:57:20.700 1.500E-01 0.500 F -0.058 -0.186 +21° 28' 04.80" 1.000E-01 0.500 F 0.216 -0.078 o 691 0.40 Yes No
2006AS2 O C 2009-01-29.13110 1.000E-05 07:57:16.970 1.500E-01 0.500 F -0.058 -0.269 +21° 28' 45.80" 1.000E-01 0.500 F 0.216 0.087 o 691 0.57 Yes No
2003RB O C 2009-01-31.19017 1.000E-05 09:02:06.070 1.500E-01 0.500 F 0.070 -0.323 +18° 10' 03.90" 1.000E-01 0.500 F 0.126 -0.176 20.1 V 0.70 -0.36 o 691 0.74 Yes Yes
2003RB O C 2009-01-31.20852 1.000E-05 09:02:04.130 1.500E-01 0.500 F 0.070 -0.427 +18° 10' 07.50" 1.000E-01 0.500 F 0.126 -0.084 20.1 V 0.70 -0.36 o 691 0.87 Yes Yes
2003RB O C 2009-01-31.22663 1.000E-05 09:02:02.210 1.500E-01 0.500 F 0.070 -0.548 +18° 10' 11.00" 1.000E-01 0.500 F 0.126 -0.023 20.2 V 0.70 -0.26 o 691 1.10 Yes Yes
2002AM31 O C H 2009-01-31.40366 1.000E-05 10:33:30.240 1.500E-01 0.500 F 0.191 0.165 +09° 21' 26.60" 1.000E-01 0.500 F 0.232 -0.437 21.7 V 0.70 0.06 o 691 0.93 Yes Yes
2001DR8 O C 2009-01-31.41126 1.000E-05 10:52:53.100 1.500E-01 0.500 F 0.146 -0.194 +09° 42' 17.70" 1.000E-01 0.500 F 0.044 -0.035 20.4 V 0.70 -0.10 o 691 0.40 Yes Yes
2002AM31 O C H 2009-01-31.42197 1.000E-05 10:33:28.960 1.500E-01 0.500 F 0.191 -0.051 +09° 21' 36.30" 1.000E-01 0.500 F 0.232 0.133 21.4 V 0.70 -0.24 o 691 0.28 Yes Yes
2001DR8 O C 2009-01-31.42957 1.000E-05 10:52:50.650 1.500E-01 0.500 F 0.146 -0.075 +09° 42' 27.00" 1.000E-01 0.500 F 0.044 -0.110 20.4 V 0.70 -0.10 o 691 0.27 Yes Yes
2002AM31 O C H 2009-01-31.44003 1.000E-05 10:33:27.690 1.500E-01 0.500 F 0.191 -0.381 +09° 21' 45.00" 1.000E-01 0.500 F 0.232 -0.165 21.1 V 0.70 -0.54 o 691 0.83 Yes Yes
2001DR8 O C 2009-01-31.44763 1.000E-05 10:52:48.210 1.500E-01 0.500 F 0.146 -0.318 +09° 42' 36.20" 1.000E-01 0.500 F 0.044 -0.138 20.6 V 0.70 0.10 o 691 0.70 Yes Yes
Florence O C 2009-01-31.46838 1.000E-05 11:21:45.550 1.500E-01 0.500 F 0.084 -0.493 +05° 46' 58.70" 1.000E-01 0.500 F 0.239 -0.139 19.1 V 0.70 1.65 o 691 1.02 Yes Yes
Florence O C 2009-01-31.48644 1.000E-05 11:21:44.260 1.500E-01 0.500 F 0.084 -0.253 +05° 46' 57.80" 1.000E-01 0.500 F 0.239 0.033 17.6 V 0.70 0.15 o 691 0.51 Yes Yes
Florence O C 2009-01-31.50449 1.000E-05 11:21:42.950 1.500E-01 0.500 F 0.084 -0.339 +05° 46' 56.80" 1.000E-01 0.500 F 0.239 0.109 17.6 V 0.70 0.15 o 691 0.71 Yes Yes
2004EW O C 2009-01-31.52873 1.000E-05 14:57:03.450 1.500E-01 0.500 F 0.162 -0.821 -15° 27' 38.00" 1.000E-01 0.500 F 0.117 0.881 20.7 V 0.70 -0.82 o 691 2.41 Yes Yes
2004EW O C 2009-01-31.53943 1.000E-05 14:57:04.190 1.500E-01 0.500 F 0.162 -0.489 -15° 27' 48.40" 1.000E-01 0.500 F 0.117 0.190 21.2 V 0.70 -0.32 o 691 1.05 Yes Yes
2004EW O C 2009-01-31.54989 1.000E-05 14:57:04.880 1.500E-01 0.500 F 0.162 -0.631 -15° 27' 58.00" 1.000E-01 0.500 F 0.117 0.061 21.6 V 0.70 0.08 o 691 1.27 Yes Yes
1998PB1 O C 2009-02-01.19904 1.000E-05 09:09:24.110 1.500E-01 0.500 F 0.029 -0.055 +13° 53' 45.70" 1.000E-01 0.500 F 0.187 -0.285 21.0 V 0.70 0.27 o 691 0.58 Yes Yes
1998PB1 O C 2009-02-01.21714 1.000E-05 09:09:22.740 1.500E-01 0.500 F 0.029 0.013 +13° 53' 50.30" 1.000E-01 0.500 F 0.187 0.226 20.6 V 0.70 -0.13 o 691 0.46 Yes Yes
1998PB1 O C 2009-02-01.23525 1.000E-05 09:09:21.340 1.500E-01 0.500 F 0.029 -0.307 +13° 53' 54.00" 1.000E-01 0.500 F 0.187 -0.154 21.0 V 0.70 0.27 o 691 0.69 Yes Yes
2009BH11 O C t 2009-02-01.26269 1.000E-05 09:54:55.150 1.500E-01 0.500 F 0.120 0.186 +09° 32' 03.10" 1.000E-01 0.500 F 0.087 -1.140 o 691 2.66 Yes No
2009BF58 O C 2009-02-01.27591 1.000E-05 09:59:03.520 1.500E-01 0.612 F 0.012 -0.271 +07° 39' 54.20" 1.000E-01 0.612 F 0.095 -0.568 20.8 V 0.70 -0.30 o 691 1.04 Yes Yes
2009BF58 O C 2009-02-01.29397 1.000E-05 09:59:05.870 1.500E-01 0.612 F 0.012 -0.292 +07° 39' 32.60" 1.000E-01 0.612 F 0.095 -0.428 20.9 V 0.70 -0.20 o 691 0.86 Yes Yes
2009BF58 O C 2009-02-01.31204 1.000E-05 09:59:08.150 1.500E-01 0.612 F 0.012 -0.212 +07° 39' 10.90" 1.000E-01 0.612 F 0.095 -0.161 20.7 V 0.70 -0.41 o 691 0.44 Yes Yes
2009BF58 O C 2009-02-01.32949 1.000E-05 09:59:10.280 1.500E-01 0.612 F 0.012 -0.354 +07° 38' 49.50" 1.000E-01 0.612 F 0.095 -0.132 21.1 V 0.70 -0.01 o 691 0.63 Yes Yes
2009BF58 O C 2009-02-01.34780 1.000E-05 09:59:12.490 1.500E-01 0.612 F 0.012 -0.256 +07° 38' 27.00" 1.000E-01 0.612 F 0.095 0.087 20.8 V 0.70 -0.32 o 691 0.46 Yes Yes
2009BF58 O C 2009-02-01.36587 1.000E-05 09:59:14.630 1.500E-01 0.612 F 0.012 -0.431 +07° 38' 04.20" 1.000E-01 0.612 F 0.095 -0.054 21.0 V 0.70 -0.12 o 691 0.74 Yes Yes
1999CU3 O C 2009-02-01.43770 1.000E-05 11:15:42.550 1.500E-01 0.500 F 0.193 -0.200 +09° 07' 30.60" 1.000E-01 0.500 F 0.076 0.073 18.8 V 0.70 -0.09 o 691 0.43 Yes Yes
1999CU3 O C 2009-02-01.45576 1.000E-05 11:15:41.520 1.500E-01 0.500 F 0.193 -0.259 +09° 07' 31.00" 1.000E-01 0.500 F 0.076 -0.014 18.9 V 0.70 0.01 o 691 0.52 Yes Yes
1999CU3 O C 2009-02-01.47408 1.000E-05 11:15:40.480 1.500E-01 0.500 F 0.193 -0.257 +09° 07' 31.40" 1.000E-01 0.500 F 0.076 -0.094 20.2 V 0.70 1.31 o 691 0.55 Yes Yes
2008VA15 O C H 2009-02-02.34055 1.000E-05 10:26:21.970 1.500E-01 0.500 F 0.107 0.159 +13° 37' 59.80" 1.000E-01 0.500 F 0.124 0.068 o 691 0.35 Yes No
2012DX32 O C 2009-02-02.34317 1.000E-05 10:11:36.980 1.500E-01 0.500 F 0.086 -0.090 +12° 09' 03.40" 1.000E-01 0.500 F 0.191 0.099 20.9 V 0.70 -0.01 o 691 0.28 Yes Yes
2000NG11 O C H 2009-02-02.34834 1.000E-05 10:27:40.000 1.500E-01 0.500 F 0.076 -0.432 +11° 14' 48.40" 1.000E-01 0.500 F 0.152 -0.002 19.7 V 0.70 0.14 o 691 0.87 Yes Yes
2005EA60 O C 2009-02-02.34834 1.000E-05 10:22:07.400 1.500E-01 0.500 F 0.054 -0.128 +11° 58' 37.70" 1.000E-01 0.500 F 0.125 -0.018 19.2 V 0.70 -0.07 o 691 0.26 Yes Yes
2008VA15 O C H 2009-02-02.35868 1.000E-05 10:26:19.670 1.500E-01 0.500 F 0.107 0.252 +13° 37' 58.00" 1.000E-01 0.500 F 0.124 0.153 20.9 V 0.70 -0.27 o 691 0.60 Yes Yes
2012DX32 O C 2009-02-02.36129 1.000E-05 10:11:36.940 1.500E-01 0.500 F 0.086 -0.278 +12° 09' 06.90" 1.000E-01 0.500 F 0.191 -0.293 20.8 V 0.70 -0.11 o 691 0.84 Yes Yes
2005EA60 O C 2009-02-02.36646 1.000E-05 10:22:06.510 1.500E-01 0.500 F 0.054 -0.261 +11° 58' 36.30" 1.000E-01 0.500 F 0.125 -0.109 19.3 V 0.70 0.03 o 691 0.57 Yes Yes
2012DX32 O C 2009-02-02.37965 1.000E-05 10:11:36.890 1.500E-01 0.500 F 0.086 -0.591 +12° 09' 11.20" 1.000E-01 0.500 F 0.191 0.108 21.1 V 0.70 0.19 o 691 1.29 Yes Yes
2005EA60 O C 2009-02-02.38458 1.000E-05 10:22:05.640 1.500E-01 0.500 F 0.054 -0.084 +11° 58' 35.10" 1.000E-01 0.500 F 0.125 0.048 19.3 V 0.70 0.03 o 691 0.19 Yes Yes
Miwablock O C H 2009-02-02.45640 1.000E-05 11:31:26.340 1.500E-01 0.500 F 0.085 0.777 +12° 31' 40.90" 1.000E-01 0.500 F 0.177 -0.157 o 691 1.59 Yes No
Miwablock O C H 2009-02-02.47453 1.000E-05 11:31:25.460 1.500E-01 0.500 F 0.085 -0.589 +12° 31' 48.90" 1.000E-01 0.500 F 0.177 -0.110 19.7 V 0.70 0.51 o 691 1.20 Yes Yes
Miwablock O C H 2009-02-02.49290 1.000E-05 11:31:24.700 1.500E-01 0.500 F 0.085 -0.055 +12° 31' 57.10" 1.000E-01 0.500 F 0.177 0.042 19.5 V 0.70 0.31 o 691 0.14 Yes Yes
2002CE O C 2009-02-02.50871 1.000E-05 14:23:54.860 1.500E-01 0.500 F 0.216 -0.606 -14° 21' 58.10" 1.000E-01 0.500 F 0.092 -0.116 21.1 V 0.70 0.42 o 691 1.23 Yes Yes
2002CE O C 2009-02-02.52181 1.000E-05 14:23:54.930 1.500E-01 0.500 F 0.216 -0.631 -14° 22' 02.90" 1.000E-01 0.500 F 0.092 0.256 20.9 V 0.70 0.22 o 691 1.36 Yes Yes
2002CE O C 2009-02-02.53490 1.000E-05 14:23:55.010 1.500E-01 0.500 F 0.216 -0.504 -14° 22' 08.60" 1.000E-01 0.500 F 0.092 -0.281 20.9 V 0.70 0.22 o 691 1.15 Yes Yes
1998WT O C 2009-02-03.23436 1.000E-05 09:14:43.730 1.500E-01 0.500 F 0.015 -0.391 +14° 31' 29.50" 1.000E-01 0.500 F 0.216 0.164 16.9 V 0.70 0.26 o 691 0.85 Yes Yes
1998WT O C 2009-02-03.25248 1.000E-05 09:14:39.900 1.500E-01 0.500 F 0.015 -0.486 +14° 31' 39.70" 1.000E-01 0.500 F 0.216 0.162 16.9 V 0.70 0.26 o 691 1.02 Yes Yes
1998WT O C 2009-02-03.27087 1.000E-05 09:14:36.020 1.500E-01 0.500 F 0.015 -0.337 +14° 31' 49.90" 1.000E-01 0.500 F 0.216 0.057 17.0 V 0.70 0.37 o 691 0.68 Yes Yes
2009CT1 O C 2009-02-03.29320 1.000E-05 09:41:55.130 1.500E-01 0.500 F 0.042 -0.694 +15° 34' 17.20" 1.000E-01 0.500 F 0.291 0.346 21.0 V 0.70 -0.23 o 691 1.60 Yes Yes
2009CT1 O C 2009-02-03.31158 1.000E-05 09:41:58.240 1.500E-01 0.500 F 0.042 -0.248 +15° 34' 29.40" 1.000E-01 0.500 F 0.291 -0.220 20.8 V 0.70 -0.43 o 691 0.68 Yes Yes
2009CT1 O C 2009-02-03.32971 1.000E-05 09:42:01.240 1.500E-01 0.500 F 0.042 -0.713 +15° 34' 41.80" 1.000E-01 0.500 F 0.291 -0.271 21.5 V 0.70 0.27 o 691 1.57 Yes Yes
Akka O C H 2009-02-03.40677 1.000E-05 10:51:41.870 1.500E-01 0.500 F 0.034 -0.109 +03° 42' 55.40" 1.000E-01 0.500 F 0.122 -0.479 21.1 V 0.70 -0.09 o 691 0.98 Yes Yes
Akka O C H 2009-02-03.42485 1.000E-05 10:51:40.910 1.500E-01 0.500 F 0.034 0.591 +03° 43' 00.20" 1.000E-01 0.500 F 0.122 -0.543 20.7 V 0.70 -0.49 o 691 1.61 Yes Yes
Akka O C H 2009-02-03.44294 1.000E-05 10:51:39.810 1.500E-01 0.500 F 0.034 -0.803 +03° 43' 06.40" 1.000E-01 0.500 F 0.122 0.789 21.3 V 0.70 0.11 o 691 2.26 Yes Yes
2005NJ1 O C 2009-02-03.45530 1.000E-05 11:08:04.050 1.500E-01 0.500 F 0.137 -0.236 +02° 21' 12.40" 1.000E-01 0.500 F 0.093 -0.159 19.3 V 0.70 -0.07 o 691 0.58 Yes Yes
2002PG80 O C H 2009-02-03.46562 1.000E-05 11:07:17.160 1.500E-01 0.500 F 0.109 -0.452 +00° 46' 06.00" 1.000E-01 0.500 F 0.170 -0.106 21.1 V 0.70 0.15 o 691 0.94 Yes Yes
2005NJ1 O C 2009-02-03.47339 1.000E-05 11:08:01.420 1.500E-01 0.500 F 0.137 -0.130 +02° 21' 19.60" 1.000E-01 0.500 F 0.093 -0.182 19.3 V 0.70 -0.07 o 691 0.45 Yes Yes
2002PG80 O C H 2009-02-03.48370 1.000E-05 11:07:16.010 1.500E-01 0.500 F 0.109 -0.391 +00° 46' 14.50" 1.000E-01 0.500 F 0.170 0.064 21.1 V 0.70 0.15 o 691 0.81 Yes Yes
2005NJ1 O C 2009-02-03.49147 1.000E-05 11:07:58.780 1.500E-01 0.500 F 0.137 -0.259 +02° 21' 26.90" 1.000E-01 0.500 F 0.093 -0.099 19.4 V 0.70 0.03 o 691 0.56 Yes Yes
2002PG80 O C H 2009-02-03.50203 1.000E-05 11:07:14.870 1.500E-01 0.500 F 0.109 0.023 +00° 46' 22.20" 1.000E-01 0.500 F 0.170 -0.684 o 691 1.38 Yes No
2008TV25 O C H 2009-02-03.52276 1.000E-05 14:44:21.020 1.500E-01 0.500 F -0.027 0.403 -17° 21' 19.40" 1.000E-01 0.500 F 0.065 -0.240 o 691 0.99 Yes No
2008TV25 O C H 2009-02-03.53582 1.000E-05 14:44:22.080 1.500E-01 0.500 F -0.027 0.054 -17° 21' 07.40" 1.000E-01 0.500 F 0.065 0.097 21.0 V 0.70 0.13 o 691 0.24 Yes Yes
2008TV25 O C H 2009-02-03.54867 1.000E-05 14:44:23.170 1.500E-01 0.500 F -0.027 0.403 -17° 20' 56.70" 1.000E-01 0.500 F 0.065 -0.710 20.9 V 0.70 0.03 o 691 1.73 Yes Yes
2000DV110 O C H 2009-02-04.11733 1.000E-05 08:26:13.420 1.500E-01 0.500 F 0.029 -0.503 +27° 13' 32.20" 1.000E-01 0.500 F 0.207 -0.686 20.9 V 0.70 -0.19 o 691 1.72 Yes Yes
2000DV110 O C H 2009-02-04.13548 1.000E-05 08:26:11.750 1.500E-01 0.500 F 0.029 -0.072 +27° 13' 36.40" 1.000E-01 0.500 F 0.207 -0.663 20.8 V 0.70 -0.29 o 691 1.35 Yes Yes
2003RB O C 2009-02-04.18690 1.000E-05 08:55:21.070 1.500E-01 0.500 F 0.026 -0.446 +18° 21' 19.70" 1.000E-01 0.500 F 0.147 -0.090 o 691 0.91 Yes No
2003RB O C 2009-02-04.20504 1.000E-05 08:55:19.250 1.500E-01 0.500 F 0.026 -0.130 +18° 21' 22.70" 1.000E-01 0.500 F 0.147 -0.083 o 691 0.31 Yes No
2003RB O C 2009-02-04.22318 1.000E-05 08:55:17.390 1.500E-01 0.500 F 0.026 -0.333 +18° 21' 25.80" 1.000E-01 0.500 F 0.147 0.050 o 691 0.68 Yes No
Florence O C 2009-02-04.46941 1.000E-05 11:16:48.420 1.500E-01 0.500 F 0.095 -0.058 +05° 44' 06.00" 1.000E-01 0.500 F 0.243 -0.052 o 691 0.16 Yes No
Florence O C 2009-02-04.48752 1.000E-05 11:16:47.040 1.500E-01 0.500 F 0.095 1.019 +05° 44' 04.40" 1.000E-01 0.500 F 0.243 -1.109 o 691 3.01 Yes No
Florence O C 2009-02-04.50560 1.000E-05 11:16:45.510 1.500E-01 0.500 F 0.095 -0.203 +05° 44' 04.90" 1.000E-01 0.500 F 0.243 -0.063 o 691 0.43 Yes No
2005CF41 O C H 2009-02-05.12874 1.000E-05 08:03:29.400 1.500E-01 0.500 F -0.010 -0.178 +17° 40' 59.50" 1.000E-01 0.500 F 0.141 -0.325 o 691 0.75 Yes No
2000NF5 O C 2009-02-05.13146 1.000E-05 08:11:33.100 1.500E-01 0.500 F -0.029 -0.494 +19° 12' 39.20" 1.000E-01 0.500 F 0.234 -0.195 20.9 V 0.70 0.21 o 691 1.06 Yes Yes
2005CF41 O C t 2009-02-05.14712 1.000E-05 08:03:27.750 1.500E-01 0.500 F -0.010 0.515 +17° 41' 13.60" 1.000E-01 0.500 F 0.141 -0.166 20.7 V 0.70 -0.32 o 691 1.10 Yes Yes
2004XN35 O C H 2009-02-05.14712 1.000E-05 08:04:52.540 1.500E-01 0.500 F -0.017 -0.288 +18° 23' 35.40" 1.000E-01 0.500 F 0.156 0.487 21.4 V 0.70 -0.03 o 691 1.13 Yes Yes
2004QQ O C H 2009-02-05.14712 1.000E-05 08:06:24.250 1.500E-01 0.500 F -0.017 0.162 +18° 01' 21.30" 1.000E-01 0.500 F 0.156 -0.099 o 691 0.38 Yes No
2000NF5 O C 2009-02-05.14959 1.000E-05 08:11:31.930 1.500E-01 0.500 F -0.029 -0.594 +19° 12' 42.60" 1.000E-01 0.500 F 0.234 -0.286 20.7 V 0.70 0.01 o 691 1.32 Yes Yes
2004QQ O C H 2009-02-05.16287 1.000E-05 08:06:23.260 1.500E-01 0.500 F -0.017 0.187 +18° 01' 23.60" 1.000E-01 0.500 F 0.156 -0.394 o 691 0.87 Yes No
2004XN35 O C H 2009-02-05.16287 1.000E-05 08:04:50.930 1.500E-01 0.500 F -0.017 -0.702 +18° 23' 42.40" 1.000E-01 0.500 F 0.156 -0.474 o 691 1.70 Yes No
2005CF41 O C t 2009-02-05.16287 1.000E-05 08:03:26.290 1.500E-01 0.500 F -0.010 0.490 +17° 41' 25.30" 1.000E-01 0.500 F 0.141 -0.392 21.0 V 0.70 -0.02 o 691 1.27 Yes Yes
2000NF5 O C 2009-02-05.16534 1.000E-05 08:11:30.940 1.500E-01 0.500 F -0.029 -0.284 +19° 12' 45.90" 1.000E-01 0.500 F 0.234 -0.010 20.9 V 0.70 0.21 o 691 0.57 Yes Yes
2000BL19 O C 2009-02-05.24530 1.000E-05 09:28:02.600 1.500E-01 0.500 F 0.027 -0.150 +11° 14' 14.20" 1.000E-01 0.500 F 0.219 0.045 17.5 V 0.70 0.04 o 691 0.32 Yes Yes
2000BL19 O C 2009-02-05.26344 1.000E-05 09:28:01.040 1.500E-01 0.500 F 0.027 -0.520 +11° 12' 51.20" 1.000E-01 0.500 F 0.219 -0.127 17.5 V 0.70 0.04 o 691 1.09 Yes Yes
2000BL19 O C 2009-02-05.28184 1.000E-05 09:27:59.500 1.500E-01 0.500 F 0.027 -0.069 +11° 11' 27.20" 1.000E-01 0.500 F 0.219 0.069 17.6 V 0.70 0.14 o 691 0.20 Yes Yes
2001BJ16 O C 2009-02-05.30247 1.000E-05 10:09:26.780 1.500E-01 0.500 F 0.153 -0.029 +17° 35' 59.40" 1.000E-01 0.500 F 0.178 0.001 19.5 V 0.70 0.50 o 691 0.06 Yes Yes
2001BJ16 O C 2009-02-05.32086 1.000E-05 10:09:25.170 1.500E-01 0.500 F 0.153 -0.314 +17° 36' 39.80" 1.000E-01 0.500 F 0.178 0.125 20.5 V 0.70 1.50 o 691 0.68 Yes Yes
2001BJ16 O C 2009-02-05.33899 1.000E-05 10:09:23.620 1.500E-01 0.500 F 0.153 -0.013 +17° 37' 19.20" 1.000E-01 0.500 F 0.178 -0.132 19.5 V 0.70 0.50 o 691 0.27 Yes Yes
2009BA11 O C 2009-02-05.34940 1.000E-05 10:17:54.620 1.500E-01 0.500 F 0.194 0.524 +09° 39' 52.20" 1.000E-01 0.500 F 0.049 -0.838 18.6 V 0.70 -0.23 o 691 2.30 Yes Yes
2009BA11 O C 2009-02-05.36775 1.000E-05 10:18:04.640 1.500E-01 0.500 F 0.194 0.398 +09° 37' 07.60" 1.000E-01 0.500 F 0.049 -0.514 18.9 V 0.70 0.07 o 691 1.53 Yes Yes
2009BA11 O C 2009-02-05.38585 1.000E-05 10:18:14.350 1.500E-01 0.500 F 0.194 -2.567 +09° 34' 24.20" 1.000E-01 0.500 F 0.049 -0.657 18.5 V 0.70 -0.33 o 691 4.61 No Yes

[1-200] [201-400] [401-600] [601-800] [801-1000] [1001-1200] [1201-1400] [1401-1600] [1601-1800] [1801-2000] [2001-2200] [2201-2400] [2401-2600] [2601-2800] [2801-3000] [3001-3200] [3201-3400] [3401-3600] [3601-3800] [3801-4000] [4001-4200] [4201-4400] [4401-4600] [4601-4800] [4801-5000] [5001-5200] [5201-5400] [5401-5600] [5601-5800] [5801-6000] [6001-6200] [6201-6400] [6401-6600] [6601-6800] [6801-7000] [7001-7200] [7201-7400] [7401-7600] [7601-7800] [7801-8000] [8001-8200] [8201-8400] [8401-8600] [8601-8800] [8801-9000] [9001-9200] [9201-9400] [9401-9600] [9601-9800] [9801-10000] [10001-10200] [10201-10400] [10401-10600] [10601-10800] [10801-11000] [11001-11200] [11201-11400] [11401-11600] [11601-11800] [11801-12000] [12001-12200] [12201-12400] [12401-12600] [12601-12800] [12801-13000] [13001-13200] [13201-13400] [13401-13600] [13601-13800] [13801-14000] [14001-14200] [14201-14400] [14401-14600] [14601-14800] [14801-15000] [15001-15200] [15201-15400] [15401-15600] [15601-15800] [15801-16000] [16001-16200] [16201-16400] [16401-16600] [16601-16800] [16801-17000] [17001-17200] [17201-17400] [17401-17600] [17601-17800] [17801-18000] [18001-18200] [18201-18400] [18401-18600] [18601-18800] [18801-19000] [19001-19200] [19201-19400] [19401-19600] [19601-19800] [19801-20000] [20001-20200] [20201-20400] [20401-20600] [20601-20800] [20801-21000] [21001-21200] [21201-21400] [21401-21600] [21601-21800] [21801-22000] [22001-22200] [22201-22400] [22401-22600] [22601-22800] [22801-23000] [23001-23200] [23201-23400] [23401-23600] [23601-23800] [23801-24000] [24001-24200] [24201-24400] [24401-24600] [24601-24800] [24801-25000] [25001-25200] [25201-25400] [25401-25600] [25601-25800] [25801-26000] [26001-26200] [26201-26400] [26401-26600] [26601-26800] [26801-27000] [27001-27200] [27201-27400] [27401-27600] [27601-27800] [27801-28000] [28001-28200] [28201-28400] [28401-28600] [28601-28800] [28801-29000] [29001-29200] [29201-29400] [29401-29600] [29601-29800] [29801-30000] [30001-30200] [30201-30400] [30401-30600] [30601-30800] [30801-31000] [31001-31200] [31201-31400] [31401-31600] [31601-31800] [31801-32000] [32001-32200] [32201-32400] [32401-32600] [32601-32800] [32801-33000] [33001-33200] [33201-33400] [33401-33600] [33601-33800] [33801-34000] [34001-34200] [34201-34400] [34401-34600] [34601-34800] [34801-35000] [35001-35200] [35201-35400] [35401-35600] [35601-35800] [35801-36000] [36001-36200] [36201-36400] [36401-36600] [36601-36800] [36801-37000] [37001-37200] [37201-37400] [37401-37600] [37601-37800] [37801-38000] [38001-38200] [38201-38400] [38401-38600] [38601-38800] [38801-39000] [39001-39200] [39201-39400] [39401-39600] [39601-39800] [39801-40000] [40001-40200] [40201-40400] [40401-40600] [40601-40800] [40801-41000] [41001-41200] [41201-41400] [41401-41600] [41601-41800] [41801-42000] [42001-42200] [42201-42400] [42401-42600] [42601-42800] [42801-43000] [43001-43200] [43201-43400] [43401-43600] [43601-43800] [43801-44000] [44001-44200] [44201-44400] [44401-44600] [44601-44800] [44801-45000] [45001-45200] [45201-45400] [45401-45600] [45601-45800] [45801-46000] [46001-46200] [46201-46400] [46401-46600] [46601-46800] [46801-47000] [47001-47200] [47201-47400] [47401-47600] [47601-47800] [47801-48000] [48001-48200] [48201-48400] [48401-48600] [48601-48800] [48801-49000] [49001-49200] [49201-49400] [49401-49600] [49601-49800] [49801-50000] [50001-50200] [50201-50388]